Time;durP1;ratioP1;P1;durP2;ratioP2;P2;SDS_P1;SDS_P2;PMS_P1;PMS_P2;Temp;Humidity;BMP_temperature;BMP_pressure;BME280_temperature;BME280_humidity;BME280_pressure;Samples;Min_cycle;Max_cycle;Signal;HPM_P1;HPM_P2
2023/03/28 00:00:26;;;;;;;2.93;2.33;;;15.90;56.60;16.80;101766.00;;;;5008766;28;20199;-47
2023/03/28 00:02:51;;;;;;;2.57;2.00;;;15.90;56.60;16.80;101764.00;;;;5009213;28;20183;-46
2023/03/28 00:05:17;;;;;;;2.83;1.93;;;15.90;56.60;16.70;101771.00;;;;5008967;28;20254;-45
2023/03/28 00:07:43;;;;;;;3.17;2.27;;;15.80;56.50;16.70;101770.00;;;;5009067;28;20175;-46
2023/03/28 00:10:09;;;;;;;2.60;2.13;;;15.80;56.50;16.70;101773.00;;;;5008471;28;20199;-47
2023/03/28 00:12:35;;;;;;;2.60;2.33;;;15.80;56.60;16.70;101773.00;;;;5007612;28;20168;-46
2023/03/28 00:15:03;;;;;;;3.03;2.20;;;15.80;56.60;16.70;101774.00;;;;5009171;28;20180;-46
2023/03/28 00:17:29;;;;;;;2.50;2.30;;;15.70;56.50;16.60;101777.00;;;;5014444;28;20180;-46
2023/03/28 00:19:55;;;;;;;3.47;2.03;;;15.70;56.50;16.60;101791.00;;;;5023035;28;20673;-46
2023/03/28 00:22:21;;;;;;;2.83;2.30;;;15.70;56.50;16.50;101785.00;;;;5022782;28;20195;-46
2023/03/28 00:24:47;;;;;;;2.43;2.00;;;15.70;56.50;16.60;101779.00;;;;5009241;28;20234;-47
2023/03/28 00:27:14;;;;;;;2.90;2.20;;;15.70;56.50;16.50;101780.00;;;;5008693;28;20171;-46
2023/03/28 00:29:40;;;;;;;2.30;2.10;;;15.70;56.50;16.30;101786.00;;;;5008629;28;20798;-45
2023/03/28 00:32:06;;;;;;;3.20;2.20;;;15.60;56.40;16.50;101783.00;;;;5008314;28;20196;-45
2023/03/28 00:34:33;;;;;;;3.17;2.20;;;15.60;56.40;16.50;101782.00;;;;5008438;28;20291;-45
2023/03/28 00:37:01;;;;;;;3.13;2.30;;;15.60;56.50;16.40;101782.00;;;;5008460;28;20267;-46
2023/03/28 00:39:28;;;;;;;3.87;2.33;;;15.60;56.50;16.40;101745.00;;;;5008382;28;20175;-46
2023/03/28 00:41:54;;;;;;;2.30;2.10;;;15.60;56.70;16.40;101786.00;;;;5008503;28;20601;-46
2023/03/28 00:44:42;;;;;;;3.23;2.20;;;15.50;56.60;16.40;101771.00;;;;5012245;28;20208;-46
2023/03/28 00:47:42;;;;;;;2.83;2.23;;;15.50;56.60;16.40;101775.00;;;;5012377;28;20180;-46
2023/03/28 00:50:29;;;;;;;2.40;2.13;;;15.50;56.60;16.30;101778.00;;;;5013397;28;20190;-45
2023/03/28 00:53:12;;;;;;;2.63;2.00;;;15.40;56.60;16.30;101778.00;;;;5011843;28;20198;-46
2023/03/28 00:56:05;;;;;;;2.30;2.10;;;15.40;56.60;16.30;101780.00;;;;5011249;28;20682;-46
2023/03/28 00:58:34;;;;;;;2.73;2.20;;;15.40;56.60;16.20;101779.00;;;;5010128;28;20251;-46
2023/03/28 01:00:59;;;;;;;2.20;2.00;;;15.40;56.60;16.20;101780.00;;;;5010945;28;20195;-46
2023/03/28 01:03:32;;;;;;;2.57;2.20;;;15.30;56.60;16.20;101786.00;;;;5010938;28;20543;-46
2023/03/28 01:05:58;;;;;;;2.63;2.13;;;15.30;56.60;16.20;101769.00;;;;5010909;28;20713;-46
2023/03/28 01:08:25;;;;;;;2.60;2.40;;;15.30;56.60;16.20;101784.00;;;;5010432;28;20350;-46
2023/03/28 01:10:50;;;;;;;2.50;2.20;;;15.30;56.60;16.20;101791.00;;;;5010626;28;20302;-47
2023/03/28 01:13:25;;;;;;;2.70;2.20;;;15.30;56.60;16.10;101800.00;;;;5011974;28;20214;-46
2023/03/28 01:15:51;;;;;;;2.40;2.17;;;15.30;56.60;16.10;101800.00;;;;5011955;28;20179;-45
2023/03/28 01:18:21;;;;;;;2.20;2.00;;;15.30;56.70;16.10;101793.00;;;;5012109;28;20188;-46
2023/03/28 01:20:56;;;;;;;2.77;2.23;;;15.20;56.60;16.10;101799.00;;;;5010448;28;20290;-46
2023/03/28 01:24:00;;;;;;;2.33;2.07;;;15.20;56.60;16.10;101794.00;;;;5011684;28;20615;-48
2023/03/28 01:26:51;;;;;;;3.00;2.20;;;15.20;56.60;16.00;101775.00;;;;5011979;28;20218;-46
2023/03/28 01:29:44;;;;;;;2.70;2.13;;;15.20;56.60;16.00;101784.00;;;;5014259;28;20191;-46
2023/03/28 01:32:26;;;;;;;2.77;2.30;;;15.10;56.50;15.90;101785.00;;;;5016414;28;20203;-46
2023/03/28 01:35:35;;;;;;;2.87;2.03;;;15.10;56.50;15.90;101786.00;;;;5001151;28;20183;-45
2023/03/28 01:38:22;;;;;;;2.50;2.00;;;15.10;56.50;15.90;101786.00;;;;5010839;28;20203;-46
2023/03/28 01:40:54;;;;;;;2.97;2.30;;;15.10;56.50;15.80;101780.00;;;;5010617;28;20257;-46
2023/03/28 01:43:47;;;;;;;2.63;2.03;;;15.00;56.50;15.80;101774.00;;;;5010395;28;20608;-46
2023/03/28 01:46:39;;;;;;;2.67;2.10;;;15.00;56.40;15.80;101775.00;;;;5010147;28;20223;-46
2023/03/28 01:49:25;;;;;;;2.30;2.10;;;15.00;56.40;15.80;101778.00;;;;5010091;28;20634;-45
2023/03/28 01:52:35;;;;;;;2.90;2.10;;;15.00;56.50;15.80;101770.00;;;;5011312;28;20239;-45
2023/03/28 01:55:37;;;;;;;2.53;2.10;;;14.90;56.40;15.70;101766.00;;;;5000244;28;20191;-45
2023/03/28 01:58:12;;;;;;;2.13;1.93;;;14.90;56.40;15.70;101775.00;;;;5008908;28;20222;-46
2023/03/28 02:00:48;;;;;;;2.50;2.00;;;14.90;56.40;15.60;101765.00;;;;5011581;28;20199;-46
2023/03/28 02:03:17;;;;;;;2.43;2.10;;;14.90;56.40;15.70;101758.00;;;;5011204;28;20670;-45
2023/03/28 02:05:44;;;;;;;3.13;2.23;;;14.90;56.40;15.60;101755.00;;;;5012344;28;20257;-46
2023/03/28 02:08:09;;;;;;;2.63;2.00;;;14.80;56.30;15.60;101764.00;;;;5012844;28;20726;-46
2023/03/28 02:10:37;;;;;;;3.50;2.20;;;14.80;56.30;15.60;101757.00;;;;5011879;28;20254;-46
2023/03/28 02:13:25;;;;;;;2.13;1.93;;;14.80;56.30;15.60;101756.00;;;;4995091;28;20275;-47
2023/03/28 02:15:55;;;;;;;2.90;2.40;;;14.80;56.30;15.50;101760.00;;;;5010258;28;20183;-45
2023/03/28 02:18:25;;;;;;;2.83;2.00;;;14.80;56.40;15.50;101761.00;;;;5009912;28;20673;-45
2023/03/28 02:20:57;;;;;;;2.47;2.00;;;14.80;56.40;15.50;101756.00;;;;5009510;28;20203;-45
2023/03/28 02:23:38;;;;;;;2.50;1.97;;;14.70;56.30;15.50;101750.00;;;;5009683;28;20176;-46
2023/03/28 02:26:04;;;;;;;2.50;2.20;;;14.70;56.30;15.50;101760.00;;;;5009906;28;20206;-46
2023/03/28 02:28:30;;;;;;;2.33;2.10;;;14.70;56.30;15.40;101759.00;;;;4990140;28;20242;-46
2023/03/28 02:30:56;;;;;;;2.57;2.37;;;14.70;56.30;15.40;101747.00;;;;5009619;28;20206;-46
2023/03/28 02:33:39;;;;;;;2.37;2.10;;;14.70;56.40;15.40;101755.00;;;;5009222;28;20271;-46
2023/03/28 02:36:26;;;;;;;2.50;2.20;;;14.70;56.30;15.40;101755.00;;;;5011035;28;20184;-47
2023/03/28 02:38:57;;;;;;;3.60;2.20;;;14.60;56.20;15.40;101754.00;;;;5010674;28;20179;-45
2023/03/28 02:42:03;;;;;;;2.27;2.00;;;14.60;56.20;15.30;101761.00;;;;5009066;28;20271;-46
2023/03/28 02:44:45;;;;;;;2.77;2.10;;;14.60;56.30;15.30;101769.00;;;;5010488;28;20647;-46
2023/03/28 02:47:20;;;;;;;2.97;2.30;;;14.60;56.20;15.30;101755.00;;;;5009190;28;20247;-46
2023/03/28 02:50:18;;;;;;;3.43;2.10;;;14.50;56.20;15.30;101760.00;;;;5009038;28;20708;-46
2023/03/28 02:52:50;;;;;;;2.77;2.30;;;14.50;56.20;15.20;101761.00;;;;5008816;28;20188;-45
2023/03/28 02:55:57;;;;;;;2.83;2.10;;;14.50;56.20;15.20;101768.00;;;;5009984;28;20172;-47
2023/03/28 02:58:42;;;;;;;2.90;2.20;;;14.50;56.30;15.20;101762.00;;;;5010121;28;20183;-46
2023/03/28 03:01:09;;;;;;;2.30;2.10;;;14.50;56.30;15.20;101755.00;;;;5008547;28;20570;-47
2023/03/28 03:03:36;;;;;;;2.77;2.23;;;14.50;56.20;15.10;101768.00;;;;5008553;28;20205;-46
2023/03/28 03:06:05;;;;;;;2.67;2.10;;;14.40;56.20;15.10;101765.00;;;;5009548;28;20327;-46
2023/03/28 03:08:31;;;;;;;2.50;2.10;;;14.40;56.20;15.10;101774.00;;;;5009961;28;20175;-45
2023/03/28 03:10:57;;;;;;;2.83;2.00;;;14.40;56.20;15.10;101761.00;;;;5010062;28;20254;-45
2023/03/28 03:13:23;;;;;;;2.63;2.10;;;14.40;56.20;15.10;101754.00;;;;5010011;28;20187;-47
2023/03/28 03:15:49;;;;;;;2.43;2.00;;;14.40;56.20;15.10;101769.00;;;;5010283;28;20183;-46
2023/03/28 03:18:18;;;;;;;3.03;2.40;;;14.30;56.20;15.00;101756.00;;;;5009919;28;20629;-46
2023/03/28 03:20:49;;;;;;;2.70;2.17;;;14.30;56.10;15.00;101757.00;;;;5009991;28;20234;-46
2023/03/28 03:23:15;;;;;;;2.10;1.90;;;14.30;56.10;15.00;101767.00;;;;5009761;28;20183;-46
2023/03/28 03:25:42;;;;;;;2.10;1.83;;;14.30;56.10;15.00;101770.00;;;;5010153;28;20200;-45
2023/03/28 03:28:07;;;;;;;3.07;2.30;;;14.20;56.10;15.00;101774.00;;;;5009769;28;20183;-45
2023/03/28 03:30:33;;;;;;;8.90;2.43;;;14.20;56.20;14.70;101773.00;;;;5009987;28;20278;-45
2023/03/28 03:32:59;;;;;;;3.10;2.20;;;14.20;56.50;15.00;101761.00;;;;5009179;28;20227;-46
2023/03/28 03:35:27;;;;;;;5.87;2.30;;;14.20;56.20;14.90;101777.00;;;;5009165;28;20187;-47
2023/03/28 03:37:53;;;;;;;4.60;2.17;;;14.20;56.20;14.90;101768.00;;;;5009086;28;20260;-46
2023/03/28 03:40:19;;;;;;;5.90;2.00;;;14.20;56.30;14.90;101778.00;;;;5008799;28;20217;-46
2023/03/28 03:42:45;;;;;;;6.93;2.50;;;14.20;56.40;14.90;101768.00;;;;5009111;28;20171;-46
2023/03/28 03:45:11;;;;;;;3.13;2.30;;;14.10;56.30;14.90;101775.00;;;;5009405;28;20223;-46
2023/03/28 03:47:36;;;;;;;3.30;2.20;;;14.20;56.40;14.90;101776.00;;;;5012709;28;20726;-45
2023/03/28 03:50:02;;;;;;;3.53;2.50;;;14.10;56.20;14.80;101779.00;;;;5010659;28;20180;-46
2023/03/28 03:52:28;;;;;;;3.20;2.40;;;14.10;56.10;14.80;101786.00;;;;5010806;28;20195;-46
2023/03/28 03:54:54;;;;;;;3.00;2.70;;;14.10;56.10;14.80;101775.00;;;;5010522;28;20638;-47
2023/03/28 03:57:20;;;;;;;4.43;2.50;;;14.10;55.90;14.80;101785.00;;;;5010461;28;20186;-46
2023/03/28 03:59:46;;;;;;;2.93;2.60;;;14.00;56.00;14.80;101788.00;;;;5010401;28;20183;-46
2023/03/28 04:02:11;;;;;;;2.93;2.50;;;14.00;55.80;14.80;101795.00;;;;5009966;28;20206;-46
2023/03/28 04:04:39;;;;;;;3.83;2.60;;;14.00;55.70;14.70;101798.00;;;;5010280;28;20195;-46
2023/03/28 04:07:05;;;;;;;3.87;2.73;;;14.00;55.50;14.70;101798.00;;;;5010664;28;20167;-46
2023/03/28 04:09:30;;;;;;;2.70;2.40;;;13.90;55.30;14.70;101803.00;;;;5010590;28;20202;-46
2023/03/28 04:11:56;;;;;;;4.60;3.03;;;13.90;55.20;14.70;101794.00;;;;5010348;28;20199;-46
2023/03/28 04:14:22;;;;;;;3.10;2.70;;;13.90;55.20;14.60;101803.00;;;;5008737;28;20171;-46
2023/03/28 04:16:52;;;;;;;3.70;2.70;;;13.90;55.10;14.60;101796.00;;;;5008922;28;20175;-47
2023/03/28 04:19:18;;;;;;;3.33;2.50;;;13.90;55.50;14.60;101799.00;;;;5014452;28;20182;-46
2023/03/28 04:21:47;;;;;;;3.20;2.60;;;13.90;54.80;14.10;101805.00;;;;5014375;28;20206;-46
2023/03/28 04:24:16;;;;;;;3.50;2.80;;;13.90;54.90;14.50;101791.00;;;;5012751;28;20187;-46
2023/03/28 04:26:48;;;;;;;3.17;2.50;;;13.80;54.80;14.50;101796.00;;;;5013127;28;20175;-46
2023/03/28 04:29:15;;;;;;;2.90;2.40;;;13.80;55.00;14.50;101797.00;;;;5013726;28;20183;-47
2023/03/28 04:31:48;;;;;;;4.00;2.50;;;13.80;55.00;14.50;101798.00;;;;5013949;28;20270;-45
2023/03/28 04:34:18;;;;;;;5.73;2.43;;;13.80;55.00;14.50;101802.00;;;;5013041;28;20175;-46
2023/03/28 04:36:45;;;;;;;6.57;2.47;;;13.80;54.90;14.50;101796.00;;;;5014305;28;20178;-45
2023/03/28 04:39:12;;;;;;;5.20;2.57;;;13.70;55.00;14.50;101803.00;;;;5013987;28;20264;-47
2023/03/28 04:41:38;;;;;;;6.20;2.57;;;13.70;55.10;14.50;101800.00;;;;5013399;28;20195;-46
2023/03/28 04:44:03;;;;;;;4.50;2.60;;;13.70;54.90;14.40;101800.00;;;;5013736;28;20179;-47
2023/03/28 04:46:29;;;;;;;6.23;2.63;;;13.70;55.00;14.40;101803.00;;;;5013799;28;20191;-45
2023/03/28 04:48:55;;;;;;;3.73;2.30;;;13.70;55.10;14.40;101801.00;;;;5013989;28;20171;-46
2023/03/28 04:51:21;;;;;;;4.00;2.30;;;13.70;55.10;14.40;101809.00;;;;5013613;28;20204;-46
2023/03/28 04:53:46;;;;;;;5.33;2.50;;;13.60;55.30;14.40;101797.00;;;;5013723;28;20237;-46
2023/03/28 04:56:12;;;;;;;3.90;2.50;;;13.70;55.60;14.40;101806.00;;;;5013967;28;20179;-47
2023/03/28 04:58:39;;;;;;;4.10;2.53;;;13.70;56.00;14.40;101811.00;;;;5013634;28;20191;-46
2023/03/28 05:01:09;;;;;;;3.83;2.70;;;13.60;56.10;14.40;101811.00;;;;5013667;28;20187;-46
2023/03/28 05:03:35;;;;;;;2.50;2.13;;;13.60;56.20;14.40;101807.00;;;;5013781;28;20179;-46
2023/03/28 05:06:01;;;;;;;3.87;2.17;;;13.60;56.30;14.30;101813.00;;;;5013788;28;20204;-46
2023/03/28 05:08:27;;;;;;;5.13;2.57;;;13.60;56.40;14.40;101816.00;;;;5013247;28;20172;-47
2023/03/28 05:10:54;;;;;;;2.67;2.27;;;13.60;56.40;14.40;101819.00;;;;5013686;28;20191;-47
2023/03/28 05:13:19;;;;;;;3.67;2.43;;;13.60;56.40;14.40;101824.00;;;;5013379;28;20180;-45
2023/03/28 05:15:46;;;;;;;5.03;2.33;;;13.60;56.40;14.30;101819.00;;;;5005722;28;20190;-48
2023/03/28 05:18:11;;;;;;;4.33;2.30;;;13.60;56.70;14.40;101823.00;;;;5009491;28;20560;-46
2023/03/28 05:20:37;;;;;;;6.70;2.50;;;13.60;56.80;14.40;101828.00;;;;5012178;28;20188;-45
2023/03/28 05:23:04;;;;;;;2.87;2.20;;;13.60;56.80;14.30;101824.00;;;;5012288;28;20175;-46
2023/03/28 05:25:30;;;;;;;3.87;2.30;;;13.60;56.80;14.40;101829.00;;;;5012335;28;20203;-46
2023/03/28 05:27:56;;;;;;;2.90;2.10;;;13.70;56.90;14.40;101838.00;;;;5012227;28;20662;-46
2023/03/28 05:30:22;;;;;;;2.70;2.03;;;13.70;56.90;14.40;101831.00;;;;5012044;28;20187;-47
2023/03/28 05:32:47;;;;;;;4.10;2.20;;;13.80;57.10;14.50;101824.00;;;;5012751;28;20172;-46
2023/03/28 05:35:14;;;;;;;2.77;2.20;;;13.80;57.10;14.60;101829.00;;;;5012524;28;20176;-46
2023/03/28 05:37:40;;;;;;;2.20;2.00;;;14.00;57.30;14.60;101831.00;;;;5012332;28;20265;-47
2023/03/28 05:40:08;;;;;;;2.17;1.90;;;14.10;57.30;14.70;101831.00;;;;5012585;28;20195;-47
2023/03/28 05:42:34;;;;;;;3.53;2.03;;;14.10;57.40;14.80;101830.00;;;;5015896;28;20214;-46
2023/03/28 05:45:01;;;;;;;3.70;2.07;;;14.20;57.40;14.90;101827.00;;;;5014990;28;20255;-46
2023/03/28 05:47:27;;;;;;;2.27;2.07;;;14.30;57.40;15.00;101825.00;;;;5015556;28;20361;-46
2023/03/28 05:49:53;;;;;;;2.40;1.90;;;14.40;57.50;15.00;101827.00;;;;5012167;28;20179;-46
2023/03/28 05:52:19;;;;;;;3.33;2.10;;;14.40;57.40;15.10;101828.00;;;;5011978;28;20195;-46
2023/03/28 05:54:44;;;;;;;2.60;1.90;;;14.50;57.50;15.20;101826.00;;;;5012683;28;20183;-46
2023/03/28 05:57:10;;;;;;;2.73;2.10;;;14.50;57.50;15.20;101826.00;;;;5012788;28;20176;-47
2023/03/28 05:59:39;;;;;;;2.30;1.80;;;14.60;57.50;15.30;101826.00;;;;5012401;28;20176;-47
2023/03/28 06:02:09;;;;;;;2.07;1.90;;;14.70;57.60;15.30;101815.00;;;;5011950;28;20196;-46
2023/03/28 06:04:36;;;;;;;2.30;1.83;;;14.70;57.60;15.40;101834.00;;;;5011947;28;20199;-47
2023/03/28 06:07:02;;;;;;;2.13;1.90;;;14.80;57.60;15.40;101830.00;;;;5011480;28;20172;-47
2023/03/28 06:09:30;;;;;;;2.10;1.90;;;14.80;57.60;15.50;101829.00;;;;5010397;28;20176;-47
2023/03/28 06:11:59;;;;;;;1.97;1.87;;;14.80;57.60;15.50;101830.00;;;;5011739;28;20567;-48
2023/03/28 06:14:26;;;;;;;2.43;1.93;;;14.80;57.70;15.60;101829.00;;;;5012270;28;20651;-46
2023/03/28 06:16:51;;;;;;;2.60;1.97;;;14.90;57.80;15.60;101833.00;;;;5012435;28;20164;-45
2023/03/28 06:19:17;;;;;;;2.47;1.93;;;14.90;57.90;15.60;101838.00;;;;5012436;28;20164;-46
2023/03/28 06:21:43;;;;;;;2.33;2.13;;;14.90;57.80;15.70;101839.00;;;;5012377;28;20199;-46
2023/03/28 06:24:10;;;;;;;2.10;1.90;;;14.90;57.80;15.70;101844.00;;;;5011499;28;20187;-46
2023/03/28 06:26:35;;;;;;;4.03;2.13;;;14.90;57.80;15.70;101857.00;;;;5012966;28;20558;-47
2023/03/28 06:29:01;;;;;;;2.33;1.90;;;15.00;58.00;15.70;101852.00;;;;5012246;28;20183;-46
2023/03/28 06:31:27;;;;;;;2.00;1.80;;;15.00;58.00;15.80;101856.00;;;;5011737;28;20196;-48
2023/03/28 06:33:53;;;;;;;2.07;1.87;;;15.10;58.00;15.80;101853.00;;;;5011807;28;20311;-46
2023/03/28 06:36:19;;;;;;;3.67;2.00;;;15.10;58.20;15.90;101858.00;;;;5011826;28;20184;-47
2023/03/28 06:38:45;;;;;;;2.10;1.80;;;15.10;58.10;15.90;101860.00;;;;5011526;28;20187;-47
2023/03/28 06:41:11;;;;;;;4.00;2.13;;;15.20;58.10;15.90;101864.00;;;;5010169;28;20207;-46
2023/03/28 06:43:37;;;;;;;3.67;1.80;;;15.10;58.20;15.90;101859.00;;;;5011095;28;20255;-47
2023/03/28 06:46:03;;;;;;;2.97;2.00;;;15.20;58.20;15.90;101874.00;;;;5011571;28;20294;-46
2023/03/28 06:48:30;;;;;;;2.73;1.83;;;15.20;58.20;15.90;101872.00;;;;5011191;28;20171;-47
2023/03/28 06:50:59;;;;;;;2.60;1.80;;;15.20;58.30;16.00;101870.00;;;;5010392;28;20192;-46
2023/03/28 06:53:25;;;;;;;3.67;2.00;;;15.30;58.40;16.00;101879.00;;;;5010489;28;20176;-46
2023/03/28 06:55:51;;;;;;;2.60;2.20;;;15.20;58.40;16.00;101872.00;;;;5011403;28;20180;-47
2023/03/28 06:58:18;;;;;;;3.47;2.10;;;15.30;58.70;16.00;101880.00;;;;5011221;28;20183;-47
2023/03/28 07:00:44;;;;;;;2.90;2.00;;;15.30;58.70;16.00;101871.00;;;;5010329;28;20678;-47
2023/03/28 07:03:10;;;;;;;2.97;2.10;;;15.30;58.70;16.00;101863.00;;;;5010250;28;20191;-47
2023/03/28 07:05:39;;;;;;;3.33;2.03;;;15.30;58.70;16.00;101877.00;;;;5012634;28;20196;-47
2023/03/28 07:08:07;;;;;;;2.20;2.00;;;15.30;58.90;16.00;101876.00;;;;5012455;28;20174;-48
2023/03/28 07:10:33;;;;;;;2.17;1.93;;;15.30;59.00;16.00;101878.00;;;;5012702;28;20269;-52
2023/03/28 07:12:59;;;;;;;3.03;2.03;;;15.30;59.10;16.10;101870.00;;;;5009095;28;20280;-47
2023/03/28 07:15:24;;;;;;;7.20;2.47;;;15.40;59.20;16.10;101886.00;;;;5004299;28;20199;-47
2023/03/28 07:17:52;;;;;;;7.83;2.30;;;15.40;59.30;15.90;101883.00;;;;5010691;28;20175;-47
2023/03/28 07:20:18;;;;;;;4.57;2.40;;;15.40;59.60;16.20;101881.00;;;;5009469;28;20190;-47
2023/03/28 07:22:44;;;;;;;2.97;2.30;;;15.40;60.00;16.20;101883.00;;;;5010318;28;20179;-47
2023/03/28 07:25:10;;;;;;;3.83;2.40;;;15.50;60.30;16.30;101885.00;;;;5010749;28;20342;-47
2023/03/28 07:27:36;;;;;;;3.23;2.63;;;15.50;60.90;16.30;101878.00;;;;5010492;28;20188;-48
2023/03/28 07:30:01;;;;;;;3.97;2.47;;;15.50;61.50;16.30;101879.00;;;;5010787;28;20172;-47
2023/03/28 07:32:27;;;;;;;5.27;2.40;;;15.60;62.20;16.30;101884.00;;;;5010234;28;20202;-47
2023/03/28 07:34:53;;;;;;;4.53;2.37;;;15.60;62.60;16.30;101887.00;;;;5010831;28;20176;-46
2023/03/28 07:37:18;;;;;;;2.80;2.40;;;15.60;62.70;16.40;101885.00;;;;5010548;28;20191;-47
2023/03/28 07:39:44;;;;;;;3.43;2.47;;;15.70;63.10;16.40;101876.00;;;;5010562;28;20175;-46
2023/03/28 07:42:10;;;;;;;3.37;2.47;;;15.70;63.00;16.40;101891.00;;;;5010797;28;20262;-48
2023/03/28 07:44:36;;;;;;;4.30;2.60;;;15.70;63.00;16.40;101889.00;;;;5009612;28;20720;-48
2023/03/28 07:47:02;;;;;;;4.30;2.50;;;15.70;63.30;16.40;101886.00;;;;5011737;28;20171;-47
2023/03/28 07:49:28;;;;;;;7.37;2.70;;;15.70;63.50;16.50;101885.00;;;;5028247;28;20436;-47
2023/03/28 07:51:54;;;;;;;5.00;2.77;;;15.70;64.30;16.50;101893.00;;;;5014182;28;20242;-48
2023/03/28 07:54:20;;;;;;;8.50;2.50;;;15.80;63.90;16.50;101889.00;;;;5010283;28;20245;-49
2023/03/28 07:56:46;;;;;;;8.50;3.13;;;15.80;64.30;16.60;101890.00;;;;5009787;28;20172;-48
2023/03/28 07:59:12;;;;;;;6.13;2.67;;;15.90;65.00;16.60;101890.00;;;;5009361;28;20187;-49
2023/03/28 08:01:42;;;;;;;10.37;2.97;;;16.00;65.30;16.60;101894.00;;;;5009190;28;20199;-49
2023/03/28 08:04:08;;;;;;;6.60;2.87;;;16.00;65.20;16.70;101886.00;;;;5011675;28;20202;-49
2023/03/28 08:06:37;;;;;;;5.30;2.60;;;16.00;65.10;16.70;101887.00;;;;5009472;28;20777;-48
2023/03/28 08:09:05;;;;;;;6.43;2.80;;;16.00;65.10;16.70;101883.00;;;;5008798;28;20190;-48
2023/03/28 08:11:31;;;;;;;4.63;2.50;;;16.10;65.30;16.70;101899.00;;;;5009400;28;20215;-48
2023/03/28 08:13:57;;;;;;;4.37;2.70;;;16.10;65.30;16.70;101895.00;;;;5009101;28;20171;-48
2023/03/28 08:16:22;;;;;;;5.60;2.40;;;16.10;65.20;16.70;101898.00;;;;5009537;28;20180;-48
2023/03/28 08:18:48;;;;;;;5.43;2.50;;;16.10;65.20;16.70;101907.00;;;;5009655;28;20182;-47
2023/03/28 08:21:14;;;;;;;6.83;2.90;;;16.10;65.20;16.70;101908.00;;;;5009472;28;20706;-48
2023/03/28 08:23:40;;;;;;;4.63;2.33;;;16.10;64.70;16.80;101906.00;;;;5009194;28;20187;-49
2023/03/28 08:26:06;;;;;;;5.97;2.70;;;16.00;64.40;16.80;101902.00;;;;5009379;28;20230;-48
2023/03/28 08:28:35;;;;;;;4.70;2.30;;;16.00;64.40;16.80;101906.00;;;;5009218;28;20172;-49
2023/03/28 08:31:08;;;;;;;4.77;2.60;;;16.00;64.90;16.70;101910.00;;;;5009244;28;20211;-50
2023/03/28 08:33:33;;;;;;;7.60;2.60;;;16.10;66.60;16.70;101914.00;;;;5008344;28;20225;-48
2023/03/28 08:35:59;;;;;;;4.13;2.20;;;16.10;67.10;16.70;101910.00;;;;5009390;28;20184;-49
2023/03/28 08:38:25;;;;;;;11.97;2.63;;;16.10;66.90;16.70;101911.00;;;;5009326;28;20183;-49
2023/03/28 08:41:13;;;;;;;4.23;2.40;;;16.10;66.20;16.80;101904.00;;;;5009056;28;20568;-49
2023/03/28 08:44:26;;;;;;;6.37;2.50;;;16.00;65.30;16.80;101907.00;;;;5008106;28;20183;-48
2023/03/28 08:46:56;;;;;;;5.20;2.33;;;16.10;65.00;16.70;101890.00;;;;5008491;28;20176;-48
2023/03/28 08:49:22;;;;;;;6.33;2.50;;;16.10;64.50;16.70;101896.00;;;;5008212;28;20167;-48
2023/03/28 08:51:59;;;;;;;8.23;2.40;;;16.10;64.30;16.70;101899.00;;;;5008188;28;20685;-49
2023/03/28 08:54:51;;;;;;;9.37;2.60;;;16.00;64.10;16.80;101901.00;;;;5008569;28;20242;-48
2023/03/28 08:57:28;;;;;;;9.20;3.67;;;16.10;64.10;16.70;101902.00;;;;5009315;28;20179;-49
2023/03/28 09:00:12;;;;;;;11.80;3.63;;;16.00;64.00;16.70;101890.00;;;;5006112;28;20627;-48
2023/03/28 09:02:38;;;;;;;12.17;3.50;;;16.10;64.10;16.70;101898.00;;;;5007648;28;20183;-47
2023/03/28 09:05:04;;;;;;;11.70;3.53;;;16.00;63.90;16.70;101894.00;;;;5010401;28;20234;-49
2023/03/28 09:07:30;;;;;;;12.73;3.10;;;16.00;63.80;16.70;101895.00;;;;5011192;28;20647;-48
2023/03/28 09:10:17;;;;;;;9.20;3.10;;;16.00;63.70;16.70;101889.00;;;;5011831;28;20178;-48
2023/03/28 09:13:39;;;;;;;10.87;3.23;;;16.00;63.60;16.70;101889.00;;;;5012393;28;20226;-49
2023/03/28 09:16:15;;;;;;;13.53;3.40;;;16.00;63.60;16.70;101889.00;;;;5010609;28;20191;-48
2023/03/28 09:19:27;;;;;;;12.47;3.27;;;16.00;63.60;16.70;101894.00;;;;5012171;28;20175;-48
2023/03/28 09:21:58;;;;;;;7.67;3.23;;;16.00;63.60;16.70;101901.00;;;;5011272;28;20234;-48
2023/03/28 09:24:42;;;;;;;7.13;3.27;;;16.00;63.60;16.70;101899.00;;;;5012234;28;20587;-48
2023/03/28 09:27:45;;;;;;;9.63;3.27;;;16.00;63.50;16.70;101885.00;;;;5011886;28;20645;-46
2023/03/28 09:30:22;;;;;;;11.03;3.17;;;16.00;63.90;16.70;101886.00;;;;5016162;28;20168;-46
2023/03/28 09:32:51;;;;;;;7.60;3.03;;;16.00;64.00;16.70;101879.00;;;;5011141;28;20164;-47
2023/03/28 09:35:20;;;;;;;10.40;3.13;;;16.00;64.30;16.70;101878.00;;;;5011026;28;20186;-48
2023/03/28 09:37:52;;;;;;;10.80;3.17;;;16.00;64.30;16.70;101878.00;;;;5012505;28;20220;-47
2023/03/28 09:40:29;;;;;;;11.70;3.60;;;16.00;64.30;16.70;101878.00;;;;5009633;28;20199;-46
2023/03/28 09:43:46;;;;;;;8.77;2.73;;;16.00;64.30;16.70;101864.00;;;;5010697;28;20175;-47
2023/03/28 09:46:40;;;;;;;10.70;2.90;;;16.00;64.30;16.70;101862.00;;;;5012173;28;20238;-46
2023/03/28 09:49:15;;;;;;;8.07;3.10;;;16.00;64.50;16.70;101858.00;;;;5010580;28;20223;-46
2023/03/28 09:51:41;;;;;;;8.47;2.87;;;16.00;64.50;16.70;101850.00;;;;5015033;28;20195;-47
2023/03/28 09:54:06;;;;;;;12.93;2.90;;;16.10;64.70;16.80;101841.00;;;;5017618;28;20555;-45
2023/03/28 09:56:35;;;;;;;5.73;2.70;;;16.10;65.20;16.80;101852.00;;;;5020890;28;20172;-44
2023/03/28 09:59:02;;;;;;;9.57;2.90;;;16.10;64.40;16.80;101849.00;;;;4995438;28;20176;-46
2023/03/28 10:01:44;;;;;;;6.80;2.83;;;16.10;64.40;16.80;101856.00;;;;5009910;28;20191;-45
2023/03/28 10:04:11;;;;;;;11.23;3.40;;;16.10;64.40;16.80;101842.00;;;;5010058;28;20199;-47
2023/03/28 10:06:39;;;;;;;10.43;3.33;;;16.10;64.50;16.80;101840.00;;;;5012254;28;20201;-46
2023/03/28 10:09:18;;;;;;;10.57;2.90;;;16.10;64.80;16.80;101844.00;;;;5010610;28;20647;-46
2023/03/28 10:12:25;;;;;;;9.67;3.23;;;16.10;64.90;16.80;101828.00;;;;5010127;28;20191;-46
2023/03/28 10:14:50;;;;;;;11.63;2.97;;;16.10;65.30;16.80;101837.00;;;;5009692;28;20195;-45
2023/03/28 10:17:24;;;;;;;14.90;3.33;;;16.10;65.20;16.90;101819.00;;;;5011236;28;20172;-46
2023/03/28 10:19:51;;;;;;;11.00;3.00;;;16.20;65.50;16.90;101827.00;;;;5010209;28;20180;-49
2023/03/28 10:22:25;;;;;;;9.33;3.00;;;16.20;65.50;16.90;101835.00;;;;5010545;28;20694;-45
2023/03/28 10:24:51;;;;;;;13.17;3.37;;;16.20;65.40;16.90;101843.00;;;;5009695;28;20203;-45
2023/03/28 10:27:31;;;;;;;9.10;2.80;;;16.20;65.30;16.90;101829.00;;;;5010028;28;20554;-45
2023/03/28 10:30:06;;;;;;;14.10;3.23;;;16.20;65.80;16.90;101825.00;;;;5010581;28;20197;-46
2023/03/28 10:32:32;;;;;;;12.43;3.40;;;16.20;65.70;16.90;101815.00;;;;5012771;28;20200;-45
2023/03/28 10:35:06;;;;;;;9.63;3.10;;;16.20;65.70;16.90;101818.00;;;;5014751;28;20202;-46
2023/03/28 10:37:32;;;;;;;11.13;3.07;;;16.20;65.90;16.90;101819.00;;;;5008828;28;20219;-45
2023/03/28 10:40:17;;;;;;;17.23;2.90;;;16.20;65.80;17.00;101810.00;;;;5010806;28;20175;-45
2023/03/28 10:42:44;;;;;;;10.57;3.37;;;16.20;65.60;16.90;101810.00;;;;5010178;28;20187;-45
2023/03/28 10:45:19;;;;;;;14.03;3.00;;;16.30;65.50;17.00;101798.00;;;;5010686;28;20234;-44
2023/03/28 10:47:44;;;;;;;10.80;3.10;;;16.20;65.30;17.00;101798.00;;;;5010803;28;20167;-45
2023/03/28 10:50:37;;;;;;;18.77;3.20;;;16.20;65.40;17.00;101798.00;;;;5009628;28;20168;-45
2023/03/28 10:53:12;;;;;;;14.50;3.40;;;16.20;66.00;17.00;101787.00;;;;5009021;28;20176;-44
2023/03/28 10:55:52;;;;;;;10.33;3.10;;;16.20;66.10;17.00;101795.00;;;;5009623;28;20206;-47
2023/03/28 10:58:35;;;;;;;14.03;3.20;;;16.20;66.10;17.00;101788.00;;;;5009217;28;20183;-45
2023/03/28 11:01:13;;;;;;;12.97;3.23;;;16.20;66.10;17.00;101784.00;;;;5009118;28;20199;-44
2023/03/28 11:04:39;;;;;;;12.60;3.33;;;16.20;66.00;17.00;101781.00;;;;5009115;28;20658;-45